sensor_id;sensor_type;location;lat;lon;timestamp;noise_LAeq;noise_LA_min;noise_LA_max;noise_LA01;noise_LA95
46393;Laerm;32099;53.588;10.176;2023-09-19T00:01:28;39.72;35.11;47.78;;
46393;Laerm;32099;53.588;10.176;2023-09-19T00:03:55;37.42;33.45;45.81;;
46393;Laerm;32099;53.588;10.176;2023-09-19T00:06:22;35.83;32.83;45.59;;
46393;Laerm;32099;53.588;10.176;2023-09-19T00:08:51;36.09;33.76;38.49;;
46393;Laerm;32099;53.588;10.176;2023-09-19T00:11:16;37.45;34.10;46.07;;
46393;Laerm;32099;53.588;10.176;2023-09-19T00:13:42;42.09;35.04;51.17;;
46393;Laerm;32099;53.588;10.176;2023-09-19T00:16:09;39.05;34.43;47.43;;
46393;Laerm;32099;53.588;10.176;2023-09-19T00:18:36;39.76;35.21;49.32;;
46393;Laerm;32099;53.588;10.176;2023-09-19T00:21:01;45.61;34.91;72.19;;
46393;Laerm;32099;53.588;10.176;2023-09-19T00:23:29;41.01;34.79;51.43;;
46393;Laerm;32099;53.588;10.176;2023-09-19T00:25:59;38.12;35.31;41.77;;
46393;Laerm;32099;53.588;10.176;2023-09-19T00:28:24;42.99;35.37;53.63;;
46393;Laerm;32099;53.588;10.176;2023-09-19T00:30:49;37.32;33.88;45.02;;
46393;Laerm;32099;53.588;10.176;2023-09-19T00:33:15;38.27;34.65;43.89;;
46393;Laerm;32099;53.588;10.176;2023-09-19T00:36:01;40.50;35.04;50.24;;
46393;Laerm;32099;53.588;10.176;2023-09-19T00:38:29;37.17;33.66;42.89;;
46393;Laerm;32099;53.588;10.176;2023-09-19T00:40:55;35.50;33.12;39.24;;
46393;Laerm;32099;53.588;10.176;2023-09-19T00:43:22;37.72;33.47;47.07;;
46393;Laerm;32099;53.588;10.176;2023-09-19T00:45:50;38.87;33.25;47.38;;
46393;Laerm;32099;53.588;10.176;2023-09-19T00:48:16;37.61;33.12;47.04;;
46393;Laerm;32099;53.588;10.176;2023-09-19T00:50:43;38.30;34.11;49.16;;
46393;Laerm;32099;53.588;10.176;2023-09-19T00:53:09;37.10;34.08;44.47;;
46393;Laerm;32099;53.588;10.176;2023-09-19T00:55:39;37.13;33.69;55.21;;
46393;Laerm;32099;53.588;10.176;2023-09-19T00:58:06;35.97;32.83;43.13;;
46393;Laerm;32099;53.588;10.176;2023-09-19T01:00:33;37.22;33.35;50.20;;
46393;Laerm;32099;53.588;10.176;2023-09-19T01:02:59;36.15;33.28;40.08;;
46393;Laerm;32099;53.588;10.176;2023-09-19T01:05:26;38.01;32.78;43.86;;
46393;Laerm;32099;53.588;10.176;2023-09-19T01:07:51;37.25;33.12;47.83;;
46393;Laerm;32099;53.588;10.176;2023-09-19T01:10:19;35.97;32.72;41.76;;
46393;Laerm;32099;53.588;10.176;2023-09-19T01:18:19;35.68;32.99;39.45;;
46393;Laerm;32099;53.588;10.176;2023-09-19T01:23:23;35.54;32.91;40.26;;
46393;Laerm;32099;53.588;10.176;2023-09-19T01:26:10;41.23;33.00;61.37;;
46393;Laerm;32099;53.588;10.176;2023-09-19T01:31:19;36.03;32.92;42.35;;
46393;Laerm;32099;53.588;10.176;2023-09-19T01:34:00;35.40;32.70;40.37;;
46393;Laerm;32099;53.588;10.176;2023-09-19T01:36:27;36.64;33.16;42.51;;
46393;Laerm;32099;53.588;10.176;2023-09-19T01:38:53;36.21;32.96;43.57;;
46393;Laerm;32099;53.588;10.176;2023-09-19T01:41:26;36.36;33.45;45.70;;
46393;Laerm;32099;53.588;10.176;2023-09-19T01:43:55;38.45;33.32;48.82;;
46393;Laerm;32099;53.588;10.176;2023-09-19T01:46:25;38.34;33.86;45.96;;
46393;Laerm;32099;53.588;10.176;2023-09-19T01:54:18;35.57;32.68;41.72;;
46393;Laerm;32099;53.588;10.176;2023-09-19T01:57:06;45.97;32.10;65.38;;
46393;Laerm;32099;53.588;10.176;2023-09-19T01:59:38;37.37;33.29;45.37;;
46393;Laerm;32099;53.588;10.176;2023-09-19T02:02:06;43.23;33.21;62.87;;
46393;Laerm;32099;53.588;10.176;2023-09-19T02:04:33;37.38;33.29;45.46;;
46393;Laerm;32099;53.588;10.176;2023-09-19T02:07:00;38.27;34.08;43.69;;
46393;Laerm;32099;53.588;10.176;2023-09-19T02:09:26;37.89;33.28;52.59;;
46393;Laerm;32099;53.588;10.176;2023-09-19T02:11:52;38.01;34.85;49.44;;
46393;Laerm;32099;53.588;10.176;2023-09-19T02:14:17;37.82;32.99;51.56;;
46393;Laerm;32099;53.588;10.176;2023-09-19T02:16:44;36.34;32.96;46.10;;
46393;Laerm;32099;53.588;10.176;2023-09-19T02:19:10;35.78;32.67;44.30;;
46393;Laerm;32099;53.588;10.176;2023-09-19T02:21:35;36.63;32.42;48.28;;
46393;Laerm;32099;53.588;10.176;2023-09-19T02:24:00;35.09;32.77;40.58;;
46393;Laerm;32099;53.588;10.176;2023-09-19T02:26:26;37.16;32.10;44.03;;
46393;Laerm;32099;53.588;10.176;2023-09-19T02:28:52;37.97;33.15;47.42;;
46393;Laerm;32099;53.588;10.176;2023-09-19T02:31:18;38.18;33.87;48.69;;
46393;Laerm;32099;53.588;10.176;2023-09-19T02:33:43;46.07;33.15;65.76;;
46393;Laerm;32099;53.588;10.176;2023-09-19T02:36:08;36.62;33.29;41.48;;
46393;Laerm;32099;53.588;10.176;2023-09-19T02:38:34;36.14;33.57;42.07;;
46393;Laerm;32099;53.588;10.176;2023-09-19T02:40:59;36.21;33.32;46.90;;
46393;Laerm;32099;53.588;10.176;2023-09-19T02:43:25;36.86;33.62;47.79;;
46393;Laerm;32099;53.588;10.176;2023-09-19T02:45:51;39.58;35.56;45.79;;
46393;Laerm;32099;53.588;10.176;2023-09-19T02:48:18;37.98;34.05;46.17;;
46393;Laerm;32099;53.588;10.176;2023-09-19T02:50:43;38.09;33.99;47.01;;
46393;Laerm;32099;53.588;10.176;2023-09-19T02:53:09;37.27;34.00;45.94;;
46393;Laerm;32099;53.588;10.176;2023-09-19T02:55:37;36.29;33.47;44.59;;
46393;Laerm;32099;53.588;10.176;2023-09-19T02:58:05;37.18;33.17;46.88;;
46393;Laerm;32099;53.588;10.176;2023-09-19T03:00:33;37.86;34.34;46.72;;
46393;Laerm;32099;53.588;10.176;2023-09-19T03:03:00;37.58;34.16;49.52;;
46393;Laerm;32099;53.588;10.176;2023-09-19T03:05:27;40.58;33.95;61.56;;
46393;Laerm;32099;53.588;10.176;2023-09-19T03:07:56;37.53;34.08;46.16;;
46393;Laerm;32099;53.588;10.176;2023-09-19T03:10:22;40.47;34.84;49.00;;
46393;Laerm;32099;53.588;10.176;2023-09-19T03:12:47;37.33;34.46;48.36;;
46393;Laerm;32099;53.588;10.176;2023-09-19T03:15:14;37.03;33.24;44.49;;
46393;Laerm;32099;53.588;10.176;2023-09-19T03:17:43;38.96;34.06;47.49;;
46393;Laerm;32099;53.588;10.176;2023-09-19T03:20:09;44.07;34.79;62.11;;
46393;Laerm;32099;53.588;10.176;2023-09-19T03:22:36;38.91;34.32;44.84;;
46393;Laerm;32099;53.588;10.176;2023-09-19T03:25:01;46.17;37.39;63.94;;
46393;Laerm;32099;53.588;10.176;2023-09-19T03:27:27;38.32;34.73;46.81;;
46393;Laerm;32099;53.588;10.176;2023-09-19T03:29:52;43.27;35.11;59.02;;
46393;Laerm;32099;53.588;10.176;2023-09-19T03:32:18;38.14;35.06;42.99;;
46393;Laerm;32099;53.588;10.176;2023-09-19T03:34:44;44.26;35.82;61.93;;
46393;Laerm;32099;53.588;10.176;2023-09-19T03:37:09;38.82;35.29;51.45;;
46393;Laerm;32099;53.588;10.176;2023-09-19T03:39:35;46.07;36.44;60.81;;
46393;Laerm;32099;53.588;10.176;2023-09-19T03:42:01;39.88;35.62;46.07;;
46393;Laerm;32099;53.588;10.176;2023-09-19T03:44:27;39.26;35.66;44.57;;
46393;Laerm;32099;53.588;10.176;2023-09-19T03:46:53;39.71;35.92;47.54;;
46393;Laerm;32099;53.588;10.176;2023-09-19T03:49:20;47.80;35.54;68.62;;
46393;Laerm;32099;53.588;10.176;2023-09-19T03:51:45;47.94;35.98;69.42;;
46393;Laerm;32099;53.588;10.176;2023-09-19T03:54:11;39.70;36.33;45.86;;
46393;Laerm;32099;53.588;10.176;2023-09-19T03:56:37;42.26;38.11;50.79;;
46393;Laerm;32099;53.588;10.176;2023-09-19T03:59:03;40.58;36.88;49.24;;
46393;Laerm;32099;53.588;10.176;2023-09-19T04:01:28;41.70;35.92;50.62;;
46393;Laerm;32099;53.588;10.176;2023-09-19T04:03:55;49.70;39.29;67.50;;
46393;Laerm;32099;53.588;10.176;2023-09-19T04:06:21;43.13;38.49;56.12;;
46393;Laerm;32099;53.588;10.176;2023-09-19T04:08:47;42.58;38.05;48.76;;
46393;Laerm;32099;53.588;10.176;2023-09-19T04:11:13;46.03;40.28;54.38;;
46393;Laerm;32099;53.588;10.176;2023-09-19T04:13:38;44.98;37.09;62.25;;
46393;Laerm;32099;53.588;10.176;2023-09-19T04:16:03;47.42;38.60;64.34;;
46393;Laerm;32099;53.588;10.176;2023-09-19T04:18:29;44.26;39.06;51.41;;
46393;Laerm;32099;53.588;10.176;2023-09-19T04:20:57;45.53;38.91;62.17;;
46393;Laerm;32099;53.588;10.176;2023-09-19T04:23:23;47.65;37.97;63.39;;
46393;Laerm;32099;53.588;10.176;2023-09-19T04:25:48;48.22;40.03;60.04;;
46393;Laerm;32099;53.588;10.176;2023-09-19T04:28:14;48.92;39.23;74.12;;
46393;Laerm;32099;53.588;10.176;2023-09-19T04:30:40;44.06;38.16;49.97;;
46393;Laerm;32099;53.588;10.176;2023-09-19T04:33:06;46.39;37.14;64.17;;
46393;Laerm;32099;53.588;10.176;2023-09-19T04:35:32;43.06;39.05;50.14;;
46393;Laerm;32099;53.588;10.176;2023-09-19T04:37:57;46.81;38.22;54.85;;
46393;Laerm;32099;53.588;10.176;2023-09-19T04:40:22;50.28;39.51;67.17;;
46393;Laerm;32099;53.588;10.176;2023-09-19T04:42:56;52.25;42.36;69.87;;
46393;Laerm;32099;53.588;10.176;2023-09-19T04:45:25;47.77;37.58;66.18;;
46393;Laerm;32099;53.588;10.176;2023-09-19T04:47:51;46.02;37.60;64.29;;
46393;Laerm;32099;53.588;10.176;2023-09-19T04:50:17;51.29;38.53;69.91;;
46393;Laerm;32099;53.588;10.176;2023-09-19T04:52:43;46.44;38.03;62.86;;
46393;Laerm;32099;53.588;10.176;2023-09-19T04:55:13;52.46;38.11;69.82;;
46393;Laerm;32099;53.588;10.176;2023-09-19T04:57:48;47.21;39.28;63.72;;
46393;Laerm;32099;53.588;10.176;2023-09-19T05:00:16;46.00;38.61;64.85;;
46393;Laerm;32099;53.588;10.176;2023-09-19T05:02:42;47.74;39.07;65.47;;
46393;Laerm;32099;53.588;10.176;2023-09-19T05:05:08;50.04;38.89;69.38;;
46393;Laerm;32099;53.588;10.176;2023-09-19T05:07:35;45.17;38.45;60.23;;
46393;Laerm;32099;53.588;10.176;2023-09-19T05:10:00;48.88;37.44;66.91;;
46393;Laerm;32099;53.588;10.176;2023-09-19T05:12:26;46.74;38.74;64.68;;
46393;Laerm;32099;53.588;10.176;2023-09-19T05:14:52;48.09;37.40;64.30;;
46393;Laerm;32099;53.588;10.176;2023-09-19T05:17:17;42.21;38.62;49.84;;
46393;Laerm;32099;53.588;10.176;2023-09-19T05:19:43;45.94;37.64;63.32;;
46393;Laerm;32099;53.588;10.176;2023-09-19T05:22:08;47.42;38.38;65.59;;
46393;Laerm;32099;53.588;10.176;2023-09-19T05:24:33;43.31;38.27;49.18;;
46393;Laerm;32099;53.588;10.176;2023-09-19T05:26:59;50.81;37.78;64.36;;
46393;Laerm;32099;53.588;10.176;2023-09-19T05:29:24;48.81;38.57;69.04;;
46393;Laerm;32099;53.588;10.176;2023-09-19T05:31:49;41.48;37.94;47.45;;
46393;Laerm;32099;53.588;10.176;2023-09-19T05:34:16;43.91;38.11;59.38;;
46393;Laerm;32099;53.588;10.176;2023-09-19T05:36:41;48.10;38.61;61.59;;
46393;Laerm;32099;53.588;10.176;2023-09-19T05:39:07;49.88;38.82;68.53;;
46393;Laerm;32099;53.588;10.176;2023-09-19T05:41:35;49.28;38.46;66.62;;
46393;Laerm;32099;53.588;10.176;2023-09-19T05:44:05;49.73;38.82;69.18;;
46393;Laerm;32099;53.588;10.176;2023-09-19T05:46:32;47.25;38.19;64.60;;
46393;Laerm;32099;53.588;10.176;2023-09-19T05:48:57;50.42;38.81;67.29;;
46393;Laerm;32099;53.588;10.176;2023-09-19T05:51:23;41.75;38.37;52.73;;
46393;Laerm;32099;53.588;10.176;2023-09-19T05:53:48;46.84;38.92;67.74;;
46393;Laerm;32099;53.588;10.176;2023-09-19T05:56:15;49.87;38.41;66.94;;
46393;Laerm;32099;53.588;10.176;2023-09-19T05:58:40;51.62;39.09;77.20;;
46393;Laerm;32099;53.588;10.176;2023-09-19T06:01:08;51.36;38.73;69.79;;
46393;Laerm;32099;53.588;10.176;2023-09-19T06:03:34;48.99;39.99;66.28;;
46393;Laerm;32099;53.588;10.176;2023-09-19T06:06:01;49.27;38.86;67.95;;
46393;Laerm;32099;53.588;10.176;2023-09-19T06:08:26;51.57;39.26;66.72;;
46393;Laerm;32099;53.588;10.176;2023-09-19T06:10:51;49.99;39.33;67.44;;
46393;Laerm;32099;53.588;10.176;2023-09-19T06:13:17;46.41;38.58;63.17;;
46393;Laerm;32099;53.588;10.176;2023-09-19T06:15:43;51.60;39.46;70.04;;
46393;Laerm;32099;53.588;10.176;2023-09-19T06:18:11;50.63;39.99;66.39;;
46393;Laerm;32099;53.588;10.176;2023-09-19T06:20:40;52.78;39.37;72.11;;
46393;Laerm;32099;53.588;10.176;2023-09-19T06:23:09;51.83;39.73;70.49;;
46393;Laerm;32099;53.588;10.176;2023-09-19T06:25:35;51.37;40.53;70.60;;
46393;Laerm;32099;53.588;10.176;2023-09-19T06:28:00;48.29;40.85;66.32;;
46393;Laerm;32099;53.588;10.176;2023-09-19T06:30:29;51.33;40.34;68.48;;
46393;Laerm;32099;53.588;10.176;2023-09-19T06:32:59;50.63;38.34;67.65;;
46393;Laerm;32099;53.588;10.176;2023-09-19T06:35:26;50.19;38.58;66.91;;
46393;Laerm;32099;53.588;10.176;2023-09-19T06:37:51;49.01;38.94;64.87;;
46393;Laerm;32099;53.588;10.176;2023-09-19T06:40:17;51.82;40.73;67.36;;
46393;Laerm;32099;53.588;10.176;2023-09-19T06:42:46;57.70;41.47;75.93;;
46393;Laerm;32099;53.588;10.176;2023-09-19T06:45:12;47.14;38.83;64.96;;
46393;Laerm;32099;53.588;10.176;2023-09-19T06:47:39;49.19;39.29;67.49;;
46393;Laerm;32099;53.588;10.176;2023-09-19T06:50:05;44.29;40.52;51.48;;
46393;Laerm;32099;53.588;10.176;2023-09-19T06:52:31;53.45;39.87;67.41;;
46393;Laerm;32099;53.588;10.176;2023-09-19T06:54:58;43.76;39.52;56.94;;
46393;Laerm;32099;53.588;10.176;2023-09-19T06:57:23;46.56;38.42;62.67;;
46393;Laerm;32099;53.588;10.176;2023-09-19T06:59:49;48.53;39.06;66.58;;
46393;Laerm;32099;53.588;10.176;2023-09-19T07:02:15;42.36;38.47;52.50;;
46393;Laerm;32099;53.588;10.176;2023-09-19T07:04:40;49.97;38.38;66.29;;
46393;Laerm;32099;53.588;10.176;2023-09-19T07:07:06;42.39;38.24;50.42;;
46393;Laerm;32099;53.588;10.176;2023-09-19T07:09:34;50.02;40.49;75.58;;
46393;Laerm;32099;53.588;10.176;2023-09-19T07:11:59;48.57;41.10;66.54;;
46393;Laerm;32099;53.588;10.176;2023-09-19T07:14:25;48.87;42.32;57.85;;
46393;Laerm;32099;53.588;10.176;2023-09-19T07:16:50;47.89;38.55;65.38;;
46393;Laerm;32099;53.588;10.176;2023-09-19T07:19:17;47.42;39.16;63.37;;
46393;Laerm;32099;53.588;10.176;2023-09-19T07:21:42;43.77;37.86;56.35;;
46393;Laerm;32099;53.588;10.176;2023-09-19T07:24:08;47.68;39.72;64.84;;
46393;Laerm;32099;53.588;10.176;2023-09-19T07:26:33;45.30;39.52;55.21;;
46393;Laerm;32099;53.588;10.176;2023-09-19T07:28:59;42.49;38.55;50.85;;
46393;Laerm;32099;53.588;10.176;2023-09-19T07:31:25;42.87;38.83;53.92;;
46393;Laerm;32099;53.588;10.176;2023-09-19T07:33:50;49.41;38.08;69.77;;
46393;Laerm;32099;53.588;10.176;2023-09-19T07:36:15;46.34;38.82;62.26;;
46393;Laerm;32099;53.588;10.176;2023-09-19T07:38:41;44.07;39.11;58.18;;
46393;Laerm;32099;53.588;10.176;2023-09-19T07:41:08;48.09;41.80;57.31;;
46393;Laerm;32099;53.588;10.176;2023-09-19T07:43:34;52.22;40.69;70.12;;
46393;Laerm;32099;53.588;10.176;2023-09-19T07:46:07;48.35;42.76;60.40;;
46393;Laerm;32099;53.588;10.176;2023-09-19T07:48:36;60.64;40.71;75.92;;
46393;Laerm;32099;53.588;10.176;2023-09-19T07:51:07;49.95;38.16;66.91;;
46393;Laerm;32099;53.588;10.176;2023-09-19T07:53:34;43.73;39.32;52.08;;
46393;Laerm;32099;53.588;10.176;2023-09-19T07:56:06;49.89;39.15;64.79;;
46393;Laerm;32099;53.588;10.176;2023-09-19T07:58:33;45.46;38.29;58.85;;
46393;Laerm;32099;53.588;10.176;2023-09-19T08:01:05;46.20;37.75;66.28;;
46393;Laerm;32099;53.588;10.176;2023-09-19T08:03:31;49.55;38.18;63.38;;
46393;Laerm;32099;53.588;10.176;2023-09-19T08:05:57;42.40;38.73;54.81;;
46393;Laerm;32099;53.588;10.176;2023-09-19T08:08:25;45.76;38.72;66.83;;
46393;Laerm;32099;53.588;10.176;2023-09-19T08:10:57;47.15;37.15;65.98;;
46393;Laerm;32099;53.588;10.176;2023-09-19T08:13:23;45.82;41.01;54.32;;
46393;Laerm;32099;53.588;10.176;2023-09-19T08:15:49;50.20;42.70;66.09;;
46393;Laerm;32099;53.588;10.176;2023-09-19T08:18:16;47.38;40.37;57.97;;
46393;Laerm;32099;53.588;10.176;2023-09-19T08:20:41;52.73;41.53;65.97;;
46393;Laerm;32099;53.588;10.176;2023-09-19T08:23:11;48.28;39.60;63.44;;
46393;Laerm;32099;53.588;10.176;2023-09-19T08:25:36;48.42;38.54;63.55;;
46393;Laerm;32099;53.588;10.176;2023-09-19T08:28:03;45.32;40.02;54.22;;
46393;Laerm;32099;53.588;10.176;2023-09-19T08:30:33;64.40;41.70;83.43;;
46393;Laerm;32099;53.588;10.176;2023-09-19T08:33:00;63.90;44.69;85.02;;
46393;Laerm;32099;53.588;10.176;2023-09-19T08:35:27;54.44;38.40;74.08;;
46393;Laerm;32099;53.588;10.176;2023-09-19T08:37:52;44.01;38.23;57.07;;
46393;Laerm;32099;53.588;10.176;2023-09-19T08:40:18;48.59;40.94;66.78;;
46393;Laerm;32099;53.588;10.176;2023-09-19T08:43:01;53.40;42.03;73.50;;
46393;Laerm;32099;53.588;10.176;2023-09-19T08:45:27;50.71;39.11;72.31;;
46393;Laerm;32099;53.588;10.176;2023-09-19T08:48:22;48.85;39.33;72.08;;
46393;Laerm;32099;53.588;10.176;2023-09-19T08:50:54;48.01;39.28;70.98;;
46393;Laerm;32099;53.588;10.176;2023-09-19T08:53:47;46.69;40.24;70.84;;
46393;Laerm;32099;53.588;10.176;2023-09-19T08:56:18;43.44;39.15;55.69;;
46393;Laerm;32099;53.588;10.176;2023-09-19T08:58:50;51.42;38.96;77.21;;
46393;Laerm;32099;53.588;10.176;2023-09-19T09:01:18;53.95;38.65;68.67;;
46393;Laerm;32099;53.588;10.176;2023-09-19T09:03:51;49.99;39.74;66.48;;
46393;Laerm;32099;53.588;10.176;2023-09-19T09:06:17;50.29;39.01;69.81;;
46393;Laerm;32099;53.588;10.176;2023-09-19T09:08:45;44.28;38.75;51.49;;
46393;Laerm;32099;53.588;10.176;2023-09-19T09:11:12;46.95;38.51;64.54;;
46393;Laerm;32099;53.588;10.176;2023-09-19T09:13:38;48.17;40.95;65.22;;
46393;Laerm;32099;53.588;10.176;2023-09-19T09:16:04;46.59;39.46;60.81;;
46393;Laerm;32099;53.588;10.176;2023-09-19T09:18:29;45.61;39.67;62.14;;
46393;Laerm;32099;53.588;10.176;2023-09-19T09:20:57;49.92;38.35;67.02;;
46393;Laerm;32099;53.588;10.176;2023-09-19T09:23:22;45.58;37.61;59.21;;
46393;Laerm;32099;53.588;10.176;2023-09-19T09:25:52;45.12;38.59;62.50;;
46393;Laerm;32099;53.588;10.176;2023-09-19T09:28:34;55.08;38.09;80.27;;
46393;Laerm;32099;53.588;10.176;2023-09-19T09:31:01;47.16;36.22;66.54;;
46393;Laerm;32099;53.588;10.176;2023-09-19T09:33:35;45.98;38.78;53.89;;
46393;Laerm;32099;53.588;10.176;2023-09-19T09:36:01;41.63;36.87;55.36;;
46393;Laerm;32099;53.588;10.176;2023-09-19T09:38:30;45.08;37.93;58.63;;
46393;Laerm;32099;53.588;10.176;2023-09-19T09:41:08;47.22;39.63;67.51;;
46393;Laerm;32099;53.588;10.176;2023-09-19T09:43:36;50.20;39.03;74.59;;
46393;Laerm;32099;53.588;10.176;2023-09-19T09:46:13;50.30;38.60;71.17;;
46393;Laerm;32099;53.588;10.176;2023-09-19T09:51:45;49.02;37.98;73.29;;
46393;Laerm;32099;53.588;10.176;2023-09-19T09:54:14;50.17;40.96;71.25;;
46393;Laerm;32099;53.588;10.176;2023-09-19T09:59:47;51.53;38.82;73.00;;
46393;Laerm;32099;53.588;10.176;2023-09-19T10:02:20;54.61;39.24;70.40;;
46393;Laerm;32099;53.588;10.176;2023-09-19T10:04:53;49.37;42.14;62.94;;
46393;Laerm;32099;53.588;10.176;2023-09-19T10:07:29;48.59;40.23;67.15;;
46393;Laerm;32099;53.588;10.176;2023-09-19T10:10:02;46.33;37.12;64.28;;
46393;Laerm;32099;53.588;10.176;2023-09-19T10:12:47;49.15;37.92;68.22;;
46393;Laerm;32099;53.588;10.176;2023-09-19T10:15:15;42.11;36.43;47.82;;
46393;Laerm;32099;53.588;10.176;2023-09-19T10:17:42;47.14;38.94;59.98;;
46393;Laerm;32099;53.588;10.176;2023-09-19T10:20:09;49.03;39.71;63.17;;
46393;Laerm;32099;53.588;10.176;2023-09-19T10:22:48;49.36;39.75;65.25;;
46393;Laerm;32099;53.588;10.176;2023-09-19T10:25:25;48.41;36.89;64.21;;
46393;Laerm;32099;53.588;10.176;2023-09-19T10:27:51;48.24;37.18;64.18;;
46393;Laerm;32099;53.588;10.176;2023-09-19T10:30:22;48.85;38.20;67.47;;
46393;Laerm;32099;53.588;10.176;2023-09-19T10:32:57;58.77;39.41;78.44;;
46393;Laerm;32099;53.588;10.176;2023-09-19T10:35:25;49.09;39.53;71.92;;
46393;Laerm;32099;53.588;10.176;2023-09-19T10:37:51;44.97;37.37;62.35;;
46393;Laerm;32099;53.588;10.176;2023-09-19T10:40:20;49.14;36.07;67.02;;
46393;Laerm;32099;53.588;10.176;2023-09-19T10:42:48;50.47;39.81;67.45;;
46393;Laerm;32099;53.588;10.176;2023-09-19T10:45:16;45.24;37.70;53.31;;
46393;Laerm;32099;53.588;10.176;2023-09-19T10:47:43;49.13;37.10;66.34;;
46393;Laerm;32099;53.588;10.176;2023-09-19T10:50:08;43.28;36.92;54.43;;
46393;Laerm;32099;53.588;10.176;2023-09-19T10:52:40;44.18;37.13;65.85;;
46393;Laerm;32099;53.588;10.176;2023-09-19T10:55:07;49.95;39.94;65.15;;
46393;Laerm;32099;53.588;10.176;2023-09-19T10:57:35;46.84;39.16;64.58;;
46393;Laerm;32099;53.588;10.176;2023-09-19T11:05:42;48.36;35.64;66.25;;
46393;Laerm;32099;53.588;10.176;2023-09-19T11:08:08;40.42;35.89;47.85;;
46393;Laerm;32099;53.588;10.176;2023-09-19T11:10:47;41.00;36.17;49.70;;
46393;Laerm;32099;53.588;10.176;2023-09-19T11:13:29;47.94;39.07;64.19;;
46393;Laerm;32099;53.588;10.176;2023-09-19T11:26:43;46.11;40.24;57.37;;
46393;Laerm;32099;53.588;10.176;2023-09-19T11:29:28;48.07;37.13;66.39;;
46393;Laerm;32099;53.588;10.176;2023-09-19T11:31:54;44.23;36.84;54.89;;
46393;Laerm;32099;53.588;10.176;2023-09-19T11:40:07;46.91;37.90;66.74;;
46393;Laerm;32099;53.588;10.176;2023-09-19T11:42:41;50.52;37.17;65.33;;
46393;Laerm;32099;53.588;10.176;2023-09-19T11:45:07;46.50;36.90;61.89;;
46393;Laerm;32099;53.588;10.176;2023-09-19T11:47:33;44.48;37.16;60.13;;
46393;Laerm;32099;53.588;10.176;2023-09-19T11:50:01;43.61;37.56;59.32;;
46393;Laerm;32099;53.588;10.176;2023-09-19T11:52:28;47.27;37.63;63.03;;
46393;Laerm;32099;53.588;10.176;2023-09-19T11:55:00;49.14;38.11;67.18;;
46393;Laerm;32099;53.588;10.176;2023-09-19T11:57:27;48.93;38.43;65.97;;
46393;Laerm;32099;53.588;10.176;2023-09-19T11:59:55;48.89;38.60;64.25;;
46393;Laerm;32099;53.588;10.176;2023-09-19T12:02:38;55.21;38.74;74.24;;
46393;Laerm;32099;53.588;10.176;2023-09-19T12:05:05;48.55;36.85;65.61;;
46393;Laerm;32099;53.588;10.176;2023-09-19T12:07:42;53.59;37.74;77.86;;
46393;Laerm;32099;53.588;10.176;2023-09-19T12:10:08;53.68;37.01;72.16;;
46393;Laerm;32099;53.588;10.176;2023-09-19T12:12:36;52.12;39.46;72.30;;
46393;Laerm;32099;53.588;10.176;2023-09-19T12:15:02;51.05;38.07;66.64;;
46393;Laerm;32099;53.588;10.176;2023-09-19T12:17:41;47.04;37.51;62.55;;
46393;Laerm;32099;53.588;10.176;2023-09-19T12:20:08;48.70;37.76;65.04;;
46393;Laerm;32099;53.588;10.176;2023-09-19T12:22:41;51.53;38.43;68.89;;
46393;Laerm;32099;53.588;10.176;2023-09-19T12:25:09;49.67;38.09;71.15;;
46393;Laerm;32099;53.588;10.176;2023-09-19T12:27:49;40.37;35.75;49.62;;
46393;Laerm;32099;53.588;10.176;2023-09-19T12:30:18;47.49;35.93;65.48;;
46393;Laerm;32099;53.588;10.176;2023-09-19T12:32:44;50.80;38.39;68.71;;
46393;Laerm;32099;53.588;10.176;2023-09-19T12:35:27;49.83;38.24;64.91;;
46393;Laerm;32099;53.588;10.176;2023-09-19T12:37:53;45.95;36.98;64.88;;
46393;Laerm;32099;53.588;10.176;2023-09-19T12:40:21;48.62;36.35;64.79;;
46393;Laerm;32099;53.588;10.176;2023-09-19T12:42:53;47.83;36.50;67.04;;
46393;Laerm;32099;53.588;10.176;2023-09-19T12:45:30;45.44;37.27;56.86;;
46393;Laerm;32099;53.588;10.176;2023-09-19T12:48:21;47.47;37.86;64.17;;
46393;Laerm;32099;53.588;10.176;2023-09-19T12:51:10;50.95;38.52;67.79;;
46393;Laerm;32099;53.588;10.176;2023-09-19T12:56:08;45.77;39.41;63.16;;
46393;Laerm;32099;53.588;10.176;2023-09-19T12:58:48;47.84;40.02;63.17;;
46393;Laerm;32099;53.588;10.176;2023-09-19T13:01:14;52.41;37.91;70.13;;
46393;Laerm;32099;53.588;10.176;2023-09-19T13:03:41;41.27;36.74;51.31;;
46393;Laerm;32099;53.588;10.176;2023-09-19T13:06:07;53.03;40.99;67.92;;
46393;Laerm;32099;53.588;10.176;2023-09-19T13:08:38;52.17;38.54;67.44;;
46393;Laerm;32099;53.588;10.176;2023-09-19T13:13:43;57.61;38.16;72.36;;
46393;Laerm;32099;53.588;10.176;2023-09-19T13:16:10;50.59;39.43;73.00;;
46393;Laerm;32099;53.588;10.176;2023-09-19T13:18:53;47.10;39.01;67.57;;
46393;Laerm;32099;53.588;10.176;2023-09-19T13:21:36;57.70;36.56;75.83;;
46393;Laerm;32099;53.588;10.176;2023-09-19T13:24:20;54.77;39.01;81.94;;
46393;Laerm;32099;53.588;10.176;2023-09-19T13:26:46;48.97;38.43;70.62;;
46393;Laerm;32099;53.588;10.176;2023-09-19T13:29:11;46.18;37.44;66.87;;
46393;Laerm;32099;53.588;10.176;2023-09-19T13:31:37;44.16;36.07;56.64;;
46393;Laerm;32099;53.588;10.176;2023-09-19T13:34:06;51.24;39.75;79.48;;
46393;Laerm;32099;53.588;10.176;2023-09-19T13:36:32;48.06;40.79;71.05;;
46393;Laerm;32099;53.588;10.176;2023-09-19T13:38:57;46.88;38.14;61.48;;
46393;Laerm;32099;53.588;10.176;2023-09-19T13:41:24;57.34;38.52;73.42;;
46393;Laerm;32099;53.588;10.176;2023-09-19T13:43:49;50.28;39.79;69.21;;
46393;Laerm;32099;53.588;10.176;2023-09-19T13:46:14;51.58;38.32;64.50;;
46393;Laerm;32099;53.588;10.176;2023-09-19T13:48:41;52.38;38.46;72.81;;
46393;Laerm;32099;53.588;10.176;2023-09-19T13:51:06;45.73;38.01;59.74;;
46393;Laerm;32099;53.588;10.176;2023-09-19T13:53:32;45.91;38.13;72.55;;
46393;Laerm;32099;53.588;10.176;2023-09-19T13:55:57;43.78;38.00;52.09;;
46393;Laerm;32099;53.588;10.176;2023-09-19T13:58:22;45.32;37.10;57.03;;
46393;Laerm;32099;53.588;10.176;2023-09-19T14:00:49;53.87;40.56;70.11;;
46393;Laerm;32099;53.588;10.176;2023-09-19T14:03:14;48.86;42.24;62.02;;
46393;Laerm;32099;53.588;10.176;2023-09-19T14:05:39;50.67;38.64;72.99;;
46393;Laerm;32099;53.588;10.176;2023-09-19T14:08:05;46.74;37.94;61.27;;
46393;Laerm;32099;53.588;10.176;2023-09-19T14:10:30;50.91;40.78;68.08;;
46393;Laerm;32099;53.588;10.176;2023-09-19T14:12:57;51.86;38.48;69.37;;
46393;Laerm;32099;53.588;10.176;2023-09-19T14:15:24;44.09;38.95;57.88;;
46393;Laerm;32099;53.588;10.176;2023-09-19T14:17:55;54.33;38.35;68.09;;
46393;Laerm;32099;53.588;10.176;2023-09-19T14:20:21;49.62;36.67;63.92;;
46393;Laerm;32099;53.588;10.176;2023-09-19T14:22:47;55.20;38.16;68.25;;
46393;Laerm;32099;53.588;10.176;2023-09-19T14:25:13;48.22;37.71;65.52;;
46393;Laerm;32099;53.588;10.176;2023-09-19T14:27:38;52.79;38.33;66.13;;